createdAt,value
2023-04-18T00:00:19.309Z,95.59
2023-04-18T00:03:21.935Z,95.67
2023-04-18T00:06:23.846Z,96.20
2023-04-18T00:09:27.150Z,95.78
2023-04-18T00:12:28.935Z,96.61
2023-04-18T00:15:31.351Z,96.36
2023-04-18T00:18:32.973Z,95.91
2023-04-18T00:21:34.492Z,96.35
2023-04-18T00:24:37.633Z,96.45
2023-04-18T00:27:39.529Z,96.75
2023-04-18T00:30:41.241Z,96.90
2023-04-18T00:33:43.148Z,96.84
2023-04-18T00:36:45.732Z,96.30
2023-04-18T00:39:48.569Z,96.45
2023-04-18T00:42:50.693Z,97.11
2023-04-18T00:45:52.430Z,97.65
2023-04-18T00:48:54.008Z,96.38
2023-04-18T00:51:56.089Z,95.70
2023-04-18T00:55:00.211Z,97.23
2023-04-18T00:58:01.995Z,98.19
2023-04-18T01:01:03.661Z,98.06
2023-04-18T01:04:08.113Z,98.33
2023-04-18T01:07:10.103Z,98.76
2023-04-18T01:10:13.165Z,99.27
2023-04-18T01:13:16.000Z,99.63
2023-04-18T01:16:17.609Z,98.58
2023-04-18T01:19:19.536Z,99.80
2023-04-18T01:22:21.293Z,99.90
2023-04-18T01:25:24.496Z,99.79
2023-04-18T01:28:27.802Z,100.00
2023-04-18T01:31:30.822Z,100.00
2023-04-18T01:34:32.504Z,100.00
2023-04-18T01:37:34.222Z,100.00
2023-04-18T01:40:37.278Z,100.00
2023-04-18T01:43:39.025Z,100.00
2023-04-18T01:46:40.939Z,100.00
2023-04-18T01:49:46.826Z,100.00
2023-04-18T01:52:48.449Z,100.00
2023-04-18T01:55:52.269Z,100.00
2023-04-18T01:58:53.961Z,100.00
2023-04-18T02:01:55.960Z,100.00
2023-04-18T02:04:59.439Z,100.00
2023-04-18T02:08:01.144Z,100.00
2023-04-18T02:11:04.382Z,100.00
2023-04-18T02:14:06.550Z,100.00
2023-04-18T02:17:08.299Z,100.00
2023-04-18T02:20:10.967Z,100.00
2023-04-18T02:23:12.720Z,100.00
2023-04-18T02:26:15.769Z,100.00
2023-04-18T02:29:17.324Z,100.00
2023-04-18T02:32:18.959Z,100.00
2023-04-18T02:35:21.026Z,100.00
2023-04-18T02:38:23.387Z,100.00
2023-04-18T02:41:28.320Z,100.00
2023-04-18T02:44:29.890Z,100.00
2023-04-18T02:47:37.540Z,100.00
2023-04-18T02:50:45.586Z,100.00
2023-04-18T02:53:48.377Z,100.00
2023-04-18T02:56:51.565Z,100.00
2023-04-18T03:00:13.964Z,100.00
2023-04-18T03:03:34.404Z,100.00
2023-04-18T03:06:53.372Z,100.00
2023-04-18T03:09:55.323Z,100.00
2023-04-18T03:13:03.350Z,100.00
2023-04-18T03:16:05.831Z,100.00
2023-04-18T03:19:08.532Z,100.00
2023-04-18T03:22:10.533Z,100.00
2023-04-18T03:25:19.552Z,100.00
2023-04-18T03:28:28.855Z,100.00
2023-04-18T03:31:31.101Z,100.00
2023-04-18T03:34:32.848Z,100.00
2023-04-18T03:37:34.959Z,100.00
2023-04-18T03:40:37.572Z,100.00
2023-04-18T03:43:48.207Z,100.00
2023-04-18T03:46:50.163Z,100.00
2023-04-18T03:49:54.327Z,100.00
2023-04-18T03:52:57.866Z,100.00
2023-04-18T03:55:59.684Z,100.00
2023-04-18T03:59:16.908Z,100.00
2023-04-18T04:02:23.029Z,100.00
2023-04-18T04:05:25.436Z,100.00
2023-04-18T04:08:28.303Z,100.00
2023-04-18T04:11:30.231Z,100.00
2023-04-18T04:14:34.270Z,100.00
2023-04-18T04:17:36.727Z,100.00
2023-04-18T04:20:38.583Z,100.00
2023-04-18T04:23:48.250Z,100.00
2023-04-18T04:27:12.521Z,100.00
2023-04-18T04:30:16.862Z,100.00
2023-04-18T04:33:20.651Z,100.00
2023-04-18T04:36:24.719Z,100.00
2023-04-18T04:39:27.626Z,100.00
2023-04-18T04:42:42.322Z,100.00
2023-04-18T04:45:53.116Z,100.00
2023-04-18T04:48:58.209Z,100.00
2023-04-18T04:52:02.752Z,100.00
2023-04-18T04:55:05.349Z,100.00
2023-04-18T04:58:07.122Z,100.00
2023-04-18T05:01:33.685Z,100.00
2023-04-18T05:04:35.593Z,100.00
2023-04-18T05:07:37.347Z,100.00
2023-04-18T05:10:39.092Z,100.00
2023-04-18T05:13:40.713Z,100.00
2023-04-18T05:16:43.849Z,100.00
2023-04-18T05:19:45.653Z,100.00
2023-04-18T05:22:47.185Z,100.00
2023-04-18T05:25:48.895Z,100.00
2023-04-18T05:28:50.664Z,100.00
2023-04-18T05:31:53.825Z,100.00
2023-04-18T05:34:55.779Z,100.00
2023-04-18T05:37:57.586Z,100.00
2023-04-18T05:41:00.401Z,100.00
2023-04-18T05:44:05.764Z,100.00
2023-04-18T05:47:09.084Z,100.00
2023-04-18T05:50:10.981Z,100.00
2023-04-18T05:53:12.880Z,100.00
2023-04-18T05:56:14.594Z,100.00
2023-04-18T05:59:16.780Z,100.00
2023-04-18T06:02:19.955Z,100.00
2023-04-18T06:05:22.062Z,100.00
2023-04-18T06:08:23.865Z,100.00
2023-04-18T06:11:25.665Z,100.00
2023-04-18T06:14:27.496Z,100.00
2023-04-18T06:17:30.661Z,100.00
2023-04-18T06:20:32.193Z,100.00
2023-04-18T06:23:33.756Z,100.00
2023-04-18T06:26:35.538Z,100.00
2023-04-18T06:29:38.069Z,100.00
2023-04-18T06:32:41.233Z,100.00
2023-04-18T06:35:42.929Z,100.00
2023-04-18T06:38:44.482Z,100.00
2023-04-18T06:41:46.067Z,100.00
2023-04-18T06:44:54.651Z,100.00
2023-04-18T06:47:59.591Z,100.00
2023-04-18T06:51:01.251Z,100.00
2023-04-18T06:54:02.789Z,100.00
2023-04-18T06:57:04.403Z,100.00
2023-04-18T07:00:06.699Z,100.00
2023-04-18T07:03:13.304Z,100.00
2023-04-18T07:06:15.534Z,100.00
2023-04-18T07:09:17.406Z,100.00
2023-04-18T07:12:18.962Z,100.00
2023-04-18T07:15:20.559Z,100.00
2023-04-18T07:18:34.354Z,100.00
2023-04-18T07:21:40.678Z,100.00
2023-04-18T07:24:42.439Z,100.00
2023-04-18T07:27:44.009Z,100.00
2023-04-18T07:30:46.050Z,100.00
2023-04-18T07:33:49.164Z,100.00
2023-04-18T07:36:51.471Z,100.00
2023-04-18T07:39:53.052Z,100.00
2023-04-18T07:42:54.643Z,100.00
2023-04-18T07:45:56.230Z,100.00
2023-04-18T07:49:01.243Z,100.00
2023-04-18T07:52:02.982Z,100.00
2023-04-18T07:55:05.533Z,100.00
2023-04-18T07:58:07.403Z,100.00
2023-04-18T08:01:13.602Z,100.00
2023-04-18T08:04:16.707Z,100.00
2023-04-18T08:07:18.750Z,100.00
2023-04-18T08:10:22.485Z,100.00
2023-04-18T08:13:25.289Z,100.00
2023-04-18T08:16:27.254Z,100.00
2023-04-18T08:19:30.454Z,100.00
2023-04-18T08:22:32.292Z,100.00
2023-04-18T08:25:33.974Z,100.00
2023-04-18T08:28:35.605Z,100.00
2023-04-18T08:31:39.600Z,100.00
2023-04-18T08:34:43.485Z,100.00
2023-04-18T08:37:45.153Z,100.00
2023-04-18T08:40:46.793Z,100.00
2023-04-18T08:43:49.070Z,100.00
2023-04-18T08:46:50.767Z,100.00
2023-04-18T08:49:53.958Z,100.00
2023-04-18T08:52:56.484Z,100.00
2023-04-18T08:56:00.380Z,100.00
2023-04-18T08:59:02.869Z,100.00
2023-04-18T09:02:06.421Z,100.00
2023-04-18T09:05:13.171Z,100.00
2023-04-18T09:08:22.192Z,100.00
2023-04-18T09:11:24.295Z,100.00
2023-04-18T09:14:26.016Z,100.00
2023-04-18T09:17:32.346Z,100.00
2023-04-18T09:20:37.766Z,100.00
2023-04-18T09:23:40.398Z,100.00
2023-04-18T09:26:42.177Z,100.00
2023-04-18T09:29:46.472Z,100.00
2023-04-18T09:32:56.897Z,100.00
2023-04-18T09:36:16.534Z,100.00
2023-04-18T09:39:26.404Z,100.00
2023-04-18T09:42:35.736Z,100.00
2023-04-18T09:45:37.446Z,100.00
2023-04-18T09:48:39.740Z,100.00
2023-04-18T09:51:43.447Z,100.00
2023-04-18T09:54:48.230Z,100.00
2023-04-18T09:57:52.132Z,100.00
2023-04-18T10:00:54.192Z,100.00
2023-04-18T10:03:57.411Z,100.00
2023-04-18T10:07:00.840Z,100.00
2023-04-18T10:10:02.475Z,100.00
2023-04-18T10:13:05.633Z,100.00
2023-04-18T10:16:07.612Z,100.00
2023-04-18T10:19:22.699Z,100.00
2023-04-18T10:22:28.308Z,100.00
2023-04-18T10:25:51.827Z,100.00
2023-04-18T10:28:54.772Z,100.00
2023-04-18T10:31:56.767Z,100.00
2023-04-18T10:34:59.778Z,100.00
2023-04-18T10:38:02.866Z,100.00
2023-04-18T10:41:15.548Z,100.00
2023-04-18T10:44:22.197Z,100.00
2023-04-18T10:47:26.099Z,100.00
2023-04-18T10:50:27.752Z,100.00
2023-04-18T10:53:30.842Z,100.00
2023-04-18T10:56:32.644Z,100.00
2023-04-18T10:59:37.584Z,100.00
2023-04-18T11:02:40.138Z,100.00
2023-04-18T11:05:41.689Z,100.00
2023-04-18T11:08:45.327Z,100.00
2023-04-18T11:11:46.856Z,100.00
2023-04-18T11:14:49.592Z,100.00
2023-04-18T11:17:55.973Z,100.00
2023-04-18T11:20:58.947Z,99.61
2023-04-18T11:24:02.395Z,98.92
2023-04-18T11:27:04.300Z,99.00
2023-04-18T11:30:07.209Z,98.86
2023-04-18T11:33:09.339Z,99.09
2023-04-18T11:36:11.772Z,98.19
2023-04-18T11:39:14.845Z,98.13
2023-04-18T11:42:16.515Z,97.64
2023-04-18T11:45:18.022Z,97.43
2023-04-18T11:48:19.494Z,97.55
2023-04-18T11:51:34.607Z,97.64
2023-04-18T11:54:41.351Z,95.97
2023-04-18T11:57:49.084Z,96.34
2023-04-18T12:00:50.650Z,95.64
2023-04-18T12:04:02.345Z,95.52
2023-04-18T12:07:04.962Z,95.25
2023-04-18T12:10:09.145Z,95.08
2023-04-18T12:13:11.005Z,94.55
2023-04-18T12:16:12.745Z,94.18
2023-04-18T12:19:14.607Z,94.56
2023-04-18T12:22:16.827Z,94.38
2023-04-18T12:25:27.075Z,94.40
2023-04-18T12:28:29.867Z,94.14
2023-04-18T12:31:31.792Z,93.94
2023-04-18T12:34:33.454Z,93.82
2023-04-18T12:37:35.153Z,92.69
2023-04-18T12:40:38.467Z,92.35
2023-04-18T12:43:40.235Z,92.48
2023-04-18T12:46:41.799Z,91.76
2023-04-18T12:49:43.685Z,91.63
2023-04-18T12:52:45.709Z,91.75
2023-04-18T12:55:48.685Z,91.82
2023-04-18T12:58:50.751Z,92.10
2023-04-18T13:01:52.428Z,91.77
2023-04-18T13:04:54.110Z,92.33
2023-04-18T13:08:08.661Z,91.01
2023-04-18T13:11:18.688Z,91.68
2023-04-18T13:14:20.524Z,91.57
2023-04-18T13:17:22.405Z,91.36
2023-04-18T13:20:24.191Z,91.18
2023-04-18T13:23:25.835Z,92.14
2023-04-18T13:26:28.802Z,91.26
2023-04-18T13:29:30.695Z,91.15
2023-04-18T13:32:32.535Z,90.37
2023-04-18T13:35:34.072Z,89.90
2023-04-18T13:38:35.670Z,89.15
2023-04-18T13:41:38.541Z,89.41
2023-04-18T13:44:40.340Z,87.42
2023-04-18T13:47:41.895Z,87.64
2023-04-18T13:50:43.439Z,87.04
2023-04-18T13:53:45.051Z,84.33
2023-04-18T13:56:47.994Z,86.33
2023-04-18T13:59:49.481Z,85.18
2023-04-18T14:02:51.271Z,86.39
2023-04-18T14:05:53.292Z,84.53
2023-04-18T14:08:54.867Z,85.60
2023-04-18T14:11:58.529Z,85.68
2023-04-18T14:15:00.525Z,84.22
2023-04-18T14:18:02.201Z,82.73
2023-04-18T14:21:04.883Z,81.01
2023-04-18T14:24:06.973Z,81.47
2023-04-18T14:27:09.950Z,81.31
2023-04-18T14:30:12.280Z,80.61
2023-04-18T14:33:14.034Z,80.85
2023-04-18T14:36:16.810Z,80.21
2023-04-18T14:39:18.511Z,79.54
2023-04-18T14:42:21.944Z,79.84
2023-04-18T14:45:23.445Z,78.22
2023-04-18T14:48:25.022Z,79.49
2023-04-18T14:51:26.647Z,78.57
2023-04-18T14:54:28.724Z,77.39
2023-04-18T14:57:32.795Z,79.08
2023-04-18T15:00:34.373Z,81.29
2023-04-18T15:03:36.001Z,80.84
2023-04-18T15:06:37.681Z,81.60
2023-04-18T15:09:39.636Z,81.18
2023-04-18T15:12:42.877Z,81.75
2023-04-18T15:15:50.916Z,82.11
2023-04-18T15:18:52.496Z,82.80
2023-04-18T15:21:54.089Z,83.37
2023-04-18T15:24:55.732Z,82.11
2023-04-18T15:27:58.720Z,80.85
2023-04-18T15:31:01.042Z,81.75
2023-04-18T15:34:02.758Z,80.55
2023-04-18T15:37:04.584Z,79.13
2023-04-18T15:40:09.311Z,78.87
2023-04-18T15:43:13.711Z,80.00
2023-04-18T15:46:16.037Z,80.29
2023-04-18T15:49:17.780Z,79.57
2023-04-18T15:52:19.429Z,78.85
2023-04-18T15:55:21.250Z,80.22
2023-04-18T15:58:29.851Z,80.37
2023-04-18T16:01:31.762Z,80.12
2023-04-18T16:04:33.777Z,80.37
2023-04-18T16:07:35.387Z,80.27
2023-04-18T16:10:37.462Z,80.27
2023-04-18T16:13:40.573Z,80.01
2023-04-18T16:16:42.207Z,79.44
2023-04-18T16:19:44.096Z,80.12
2023-04-18T16:22:45.980Z,79.78
2023-04-18T16:25:47.819Z,80.32
2023-04-18T16:28:50.923Z,79.97
2023-04-18T16:31:52.815Z,79.67
2023-04-18T16:34:54.548Z,80.52
2023-04-18T16:37:56.155Z,80.44
2023-04-18T16:40:58.867Z,80.94
2023-04-18T16:44:01.942Z,80.33
2023-04-18T16:47:05.135Z,81.43
2023-04-18T16:50:08.058Z,80.79
2023-04-18T16:53:09.914Z,80.79
2023-04-18T16:56:11.446Z,81.91
2023-04-18T16:59:14.613Z,82.36
2023-04-18T17:02:16.378Z,82.03
2023-04-18T17:05:19.412Z,83.14
2023-04-18T17:08:21.109Z,82.92
2023-04-18T17:11:23.225Z,83.59
2023-04-18T17:14:26.224Z,83.84
2023-04-18T17:17:27.982Z,83.99
2023-04-18T17:20:30.027Z,84.51
2023-04-18T17:23:32.942Z,85.14
2023-04-18T17:26:35.268Z,84.96
2023-04-18T17:29:38.540Z,85.04
2023-04-18T17:32:46.059Z,85.29
2023-04-18T17:35:48.325Z,86.31
2023-04-18T17:38:50.203Z,86.12
2023-04-18T17:41:51.812Z,85.82
2023-04-18T17:44:55.304Z,86.14
2023-04-18T17:47:58.308Z,87.05
2023-04-18T17:51:00.079Z,86.57
2023-04-18T17:54:02.131Z,87.02
2023-04-18T17:57:03.755Z,87.83
2023-04-18T18:00:11.083Z,88.55
2023-04-18T18:03:15.998Z,88.72
2023-04-18T18:06:17.748Z,89.25
2023-04-18T18:09:19.440Z,89.71
2023-04-18T18:12:21.392Z,90.24
2023-04-18T18:15:24.458Z,89.99
2023-04-18T18:18:26.346Z,90.94
2023-04-18T18:21:28.881Z,91.04
2023-04-18T18:24:30.671Z,91.30
2023-04-18T18:27:32.311Z,92.27
2023-04-18T18:30:37.405Z,92.74
2023-04-18T18:33:39.073Z,93.54
2023-04-18T18:36:40.876Z,93.94
2023-04-18T18:39:42.509Z,93.91
2023-04-18T18:42:44.194Z,94.34
2023-04-18T18:45:47.298Z,93.96
2023-04-18T18:48:50.378Z,95.26
2023-04-18T18:51:52.139Z,95.39
2023-04-18T18:54:54.589Z,95.58
2023-04-18T18:57:56.073Z,95.76
2023-04-18T19:01:02.280Z,95.21
2023-04-18T19:04:04.081Z,95.11
2023-04-18T19:07:06.145Z,95.96
2023-04-18T19:10:09.030Z,96.03
2023-04-18T19:13:10.844Z,96.89
2023-04-18T19:16:14.519Z,96.70
2023-04-18T19:19:17.542Z,96.99
2023-04-18T19:22:19.052Z,97.65
2023-04-18T19:25:21.284Z,97.81
2023-04-18T19:28:23.116Z,97.38
2023-04-18T19:31:26.271Z,98.45
2023-04-18T19:34:27.903Z,98.34
2023-04-18T19:37:29.708Z,98.22
2023-04-18T19:40:31.585Z,98.24
2023-04-18T19:43:34.494Z,98.62
2023-04-18T19:46:38.183Z,99.20
2023-04-18T19:49:39.867Z,98.88
2023-04-18T19:52:41.689Z,98.95
2023-04-18T19:55:44.469Z,99.26
2023-04-18T19:58:46.778Z,99.23
2023-04-18T20:01:49.858Z,99.21
2023-04-18T20:04:51.519Z,99.16
2023-04-18T20:07:53.198Z,99.06
2023-04-18T20:10:54.827Z,99.31
2023-04-18T20:13:56.621Z,99.70
2023-04-18T20:16:59.714Z,99.68
2023-04-18T20:20:01.933Z,98.79
2023-04-18T20:23:03.672Z,99.74
2023-04-18T20:26:06.828Z,100.00
2023-04-18T20:29:08.453Z,100.00
2023-04-18T20:32:11.874Z,99.93
2023-04-18T20:35:15.467Z,100.00
2023-04-18T20:38:31.766Z,100.00
2023-04-18T20:41:34.816Z,100.00
2023-04-18T20:44:36.595Z,99.72
2023-04-18T20:47:42.172Z,100.00
2023-04-18T20:50:49.861Z,99.83
2023-04-18T20:53:51.944Z,99.66
2023-04-18T20:56:53.568Z,99.63
2023-04-18T20:59:58.789Z,99.13
2023-04-18T21:03:02.019Z,99.59
2023-04-18T21:06:03.942Z,99.40
2023-04-18T21:09:06.555Z,99.17
2023-04-18T21:12:08.378Z,98.82
2023-04-18T21:15:11.200Z,98.37
2023-04-18T21:18:15.685Z,97.94
2023-04-18T21:21:17.727Z,96.61
2023-04-18T21:24:19.475Z,95.87
2023-04-18T21:27:21.184Z,95.74
2023-04-18T21:30:23.262Z,94.93
2023-04-18T21:33:26.900Z,94.89
2023-04-18T21:36:31.049Z,94.52
2023-04-18T21:39:32.727Z,93.75
2023-04-18T21:42:35.499Z,93.67
2023-04-18T21:45:37.038Z,93.31
2023-04-18T21:48:40.782Z,93.34
2023-04-18T21:51:42.294Z,93.31
2023-04-18T21:54:43.948Z,92.72
2023-04-18T21:57:45.604Z,92.55
2023-04-18T22:00:47.098Z,91.99
2023-04-18T22:03:50.299Z,91.36
2023-04-18T22:06:54.208Z,91.22
2023-04-18T22:09:57.936Z,90.70
2023-04-18T22:13:00.285Z,90.94
2023-04-18T22:16:02.979Z,90.70
2023-04-18T22:19:06.199Z,90.75
2023-04-18T22:22:07.714Z,90.51
2023-04-18T22:25:11.541Z,90.50
2023-04-18T22:28:13.122Z,89.74
2023-04-18T22:31:17.484Z,89.71
2023-04-18T22:34:20.343Z,89.20
2023-04-18T22:37:21.893Z,89.12
2023-04-18T22:40:23.615Z,88.59
2023-04-18T22:43:26.845Z,87.85
2023-04-18T22:46:28.618Z,87.44
2023-04-18T22:49:33.028Z,87.82
2023-04-18T22:52:34.636Z,87.74
2023-04-18T22:55:38.401Z,87.29
2023-04-18T22:58:40.046Z,87.96
2023-04-18T23:01:41.851Z,88.06
2023-04-18T23:04:46.282Z,87.79
2023-04-18T23:07:47.964Z,87.43
2023-04-18T23:10:49.868Z,86.99
2023-04-18T23:13:51.584Z,86.96
2023-04-18T23:16:53.169Z,86.57
2023-04-18T23:19:56.038Z,87.11
2023-04-18T23:22:57.582Z,86.34
2023-04-18T23:25:59.257Z,85.94
2023-04-18T23:29:00.867Z,86.12
2023-04-18T23:32:02.591Z,85.69
2023-04-18T23:35:06.861Z,85.60
2023-04-18T23:38:08.480Z,85.84
2023-04-18T23:41:10.332Z,86.15
2023-04-18T23:44:11.811Z,84.76
2023-04-18T23:47:13.628Z,85.35
2023-04-18T23:50:16.674Z,83.57
2023-04-18T23:53:18.698Z,83.66
2023-04-18T23:56:20.552Z,83.88
2023-04-18T23:59:22.139Z,83.86
